sensor_id;sensor_type;location;lat;lon;timestamp;P1;durP1;ratioP1;P2;durP2;ratioP2
71048;SDS011;58704;53.358;-6.238;2022-10-16T00:00:16;4.03;;;1.33;;
71048;SDS011;58704;53.358;-6.238;2022-10-16T00:02:42;5.33;;;1.63;;
71048;SDS011;58704;53.358;-6.238;2022-10-16T00:05:07;3.27;;;1.27;;
71048;SDS011;58704;53.358;-6.238;2022-10-16T00:07:32;6.13;;;1.17;;
71048;SDS011;58704;53.358;-6.238;2022-10-16T00:09:58;2.50;;;1.37;;
71048;SDS011;58704;53.358;-6.238;2022-10-16T00:12:23;2.97;;;1.30;;
71048;SDS011;58704;53.358;-6.238;2022-10-16T00:14:49;5.75;;;1.40;;
71048;SDS011;58704;53.358;-6.238;2022-10-16T00:17:14;2.43;;;1.07;;
71048;SDS011;58704;53.358;-6.238;2022-10-16T00:19:40;3.10;;;1.10;;
71048;SDS011;58704;53.358;-6.238;2022-10-16T00:22:05;3.47;;;1.20;;
71048;SDS011;58704;53.358;-6.238;2022-10-16T00:24:31;3.17;;;1.03;;
71048;SDS011;58704;53.358;-6.238;2022-10-16T00:26:56;3.40;;;1.10;;
71048;SDS011;58704;53.358;-6.238;2022-10-16T00:29:21;4.73;;;1.00;;
71048;SDS011;58704;53.358;-6.238;2022-10-16T00:31:47;6.53;;;1.17;;
71048;SDS011;58704;53.358;-6.238;2022-10-16T00:34:12;3.63;;;1.13;;
71048;SDS011;58704;53.358;-6.238;2022-10-16T00:36:37;2.87;;;1.50;;
71048;SDS011;58704;53.358;-6.238;2022-10-16T00:39:03;2.97;;;1.48;;
71048;SDS011;58704;53.358;-6.238;2022-10-16T00:41:29;2.03;;;0.97;;
71048;SDS011;58704;53.358;-6.238;2022-10-16T00:43:56;3.60;;;1.30;;
71048;SDS011;58704;53.358;-6.238;2022-10-16T00:46:31;2.80;;;1.10;;
71048;SDS011;58704;53.358;-6.238;2022-10-16T00:51:37;5.13;;;0.97;;
71048;SDS011;58704;53.358;-6.238;2022-10-16T00:54:05;5.90;;;1.02;;
71048;SDS011;58704;53.358;-6.238;2022-10-16T00:56:33;5.68;;;1.40;;
71048;SDS011;58704;53.358;-6.238;2022-10-16T00:58:59;4.00;;;1.10;;
71048;SDS011;58704;53.358;-6.238;2022-10-16T01:01:26;4.55;;;0.90;;
71048;SDS011;58704;53.358;-6.238;2022-10-16T01:03:52;2.90;;;1.05;;
71048;SDS011;58704;53.358;-6.238;2022-10-16T01:15:01;5.07;;;1.42;;
71048;SDS011;58704;53.358;-6.238;2022-10-16T01:20:56;6.03;;;1.08;;
71048;SDS011;58704;53.358;-6.238;2022-10-16T01:28:45;3.25;;;0.70;;
71048;SDS011;58704;53.358;-6.238;2022-10-16T01:31:22;4.15;;;1.17;;
71048;SDS011;58704;53.358;-6.238;2022-10-16T01:33:57;4.07;;;0.90;;
71048;SDS011;58704;53.358;-6.238;2022-10-16T01:36:27;3.13;;;1.00;;
71048;SDS011;58704;53.358;-6.238;2022-10-16T01:38:56;2.42;;;1.05;;
71048;SDS011;58704;53.358;-6.238;2022-10-16T01:41:33;4.60;;;0.90;;
71048;SDS011;58704;53.358;-6.238;2022-10-16T01:44:16;5.78;;;1.20;;
71048;SDS011;58704;53.358;-6.238;2022-10-16T01:46:46;3.20;;;0.90;;
71048;SDS011;58704;53.358;-6.238;2022-10-16T01:49:13;2.53;;;0.80;;
71048;SDS011;58704;53.358;-6.238;2022-10-16T01:51:39;5.22;;;1.15;;
71048;SDS011;58704;53.358;-6.238;2022-10-16T01:54:06;3.95;;;0.90;;
71048;SDS011;58704;53.358;-6.238;2022-10-16T01:56:33;4.47;;;1.08;;
71048;SDS011;58704;53.358;-6.238;2022-10-16T01:59:07;5.03;;;1.00;;
71048;SDS011;58704;53.358;-6.238;2022-10-16T02:01:36;3.35;;;1.10;;
71048;SDS011;58704;53.358;-6.238;2022-10-16T02:04:07;1.98;;;1.38;;
71048;SDS011;58704;53.358;-6.238;2022-10-16T02:06:54;3.15;;;0.77;;
71048;SDS011;58704;53.358;-6.238;2022-10-16T02:09:19;2.83;;;0.93;;
71048;SDS011;58704;53.358;-6.238;2022-10-16T02:11:45;4.37;;;0.93;;
71048;SDS011;58704;53.358;-6.238;2022-10-16T02:14:10;2.20;;;0.90;;
71048;SDS011;58704;53.358;-6.238;2022-10-16T02:19:06;5.75;;;1.23;;
71048;SDS011;58704;53.358;-6.238;2022-10-16T02:26:51;5.53;;;1.27;;
71048;SDS011;58704;53.358;-6.238;2022-10-16T02:29:21;4.00;;;0.90;;
71048;SDS011;58704;53.358;-6.238;2022-10-16T02:31:50;5.10;;;0.95;;
71048;SDS011;58704;53.358;-6.238;2022-10-16T02:34:18;3.30;;;0.90;;
71048;SDS011;58704;53.358;-6.238;2022-10-16T02:36:44;3.73;;;0.80;;
71048;SDS011;58704;53.358;-6.238;2022-10-16T02:39:10;5.68;;;1.40;;
71048;SDS011;58704;53.358;-6.238;2022-10-16T02:41:35;3.30;;;0.95;;
71048;SDS011;58704;53.358;-6.238;2022-10-16T02:44:01;4.53;;;0.90;;
71048;SDS011;58704;53.358;-6.238;2022-10-16T02:46:26;4.03;;;1.40;;
71048;SDS011;58704;53.358;-6.238;2022-10-16T02:48:52;7.13;;;0.98;;
71048;SDS011;58704;53.358;-6.238;2022-10-16T02:51:17;3.73;;;1.30;;
71048;SDS011;58704;53.358;-6.238;2022-10-16T02:53:43;6.03;;;1.03;;
71048;SDS011;58704;53.358;-6.238;2022-10-16T02:56:08;4.63;;;1.00;;
71048;SDS011;58704;53.358;-6.238;2022-10-16T02:58:33;3.77;;;0.80;;
71048;SDS011;58704;53.358;-6.238;2022-10-16T03:00:59;2.38;;;0.70;;
71048;SDS011;58704;53.358;-6.238;2022-10-16T03:03:24;3.40;;;0.87;;
71048;SDS011;58704;53.358;-6.238;2022-10-16T03:05:50;2.97;;;0.97;;
71048;SDS011;58704;53.358;-6.238;2022-10-16T03:08:15;2.60;;;1.17;;
71048;SDS011;58704;53.358;-6.238;2022-10-16T03:10:41;3.77;;;0.90;;
71048;SDS011;58704;53.358;-6.238;2022-10-16T03:13:06;3.40;;;0.73;;
71048;SDS011;58704;53.358;-6.238;2022-10-16T03:15:32;1.80;;;0.87;;
71048;SDS011;58704;53.358;-6.238;2022-10-16T03:17:57;0.90;;;0.90;;
71048;SDS011;58704;53.358;-6.238;2022-10-16T03:20:23;3.33;;;1.00;;
71048;SDS011;58704;53.358;-6.238;2022-10-16T03:22:49;2.13;;;0.73;;
71048;SDS011;58704;53.358;-6.238;2022-10-16T03:25:14;1.70;;;0.93;;
71048;SDS011;58704;53.358;-6.238;2022-10-16T03:27:40;5.47;;;1.53;;
71048;SDS011;58704;53.358;-6.238;2022-10-16T03:30:05;5.53;;;0.90;;
71048;SDS011;58704;53.358;-6.238;2022-10-16T03:32:31;6.82;;;2.15;;
71048;SDS011;58704;53.358;-6.238;2022-10-16T03:34:57;2.97;;;0.97;;
71048;SDS011;58704;53.358;-6.238;2022-10-16T03:37:22;2.30;;;0.80;;
71048;SDS011;58704;53.358;-6.238;2022-10-16T03:39:48;5.40;;;1.97;;
71048;SDS011;58704;53.358;-6.238;2022-10-16T03:42:13;3.38;;;0.85;;
71048;SDS011;58704;53.358;-6.238;2022-10-16T03:44:38;1.77;;;1.33;;
71048;SDS011;58704;53.358;-6.238;2022-10-16T03:47:04;1.50;;;0.87;;
71048;SDS011;58704;53.358;-6.238;2022-10-16T03:49:29;1.77;;;0.67;;
71048;SDS011;58704;53.358;-6.238;2022-10-16T03:51:54;5.53;;;1.10;;
71048;SDS011;58704;53.358;-6.238;2022-10-16T03:54:20;1.33;;;1.00;;
71048;SDS011;58704;53.358;-6.238;2022-10-16T03:56:47;4.80;;;1.17;;
71048;SDS011;58704;53.358;-6.238;2022-10-16T03:59:12;4.18;;;0.90;;
71048;SDS011;58704;53.358;-6.238;2022-10-16T04:01:38;3.63;;;1.03;;
71048;SDS011;58704;53.358;-6.238;2022-10-16T04:04:03;1.63;;;0.80;;
71048;SDS011;58704;53.358;-6.238;2022-10-16T04:06:28;1.55;;;0.75;;
71048;SDS011;58704;53.358;-6.238;2022-10-16T04:08:54;3.00;;;0.70;;
71048;SDS011;58704;53.358;-6.238;2022-10-16T04:11:19;3.37;;;1.10;;
71048;SDS011;58704;53.358;-6.238;2022-10-16T04:13:45;4.00;;;0.90;;
71048;SDS011;58704;53.358;-6.238;2022-10-16T04:16:10;6.13;;;0.60;;
71048;SDS011;58704;53.358;-6.238;2022-10-16T04:18:35;5.78;;;1.25;;
71048;SDS011;58704;53.358;-6.238;2022-10-16T04:21:04;2.40;;;1.03;;
71048;SDS011;58704;53.358;-6.238;2022-10-16T04:23:30;4.60;;;0.70;;
71048;SDS011;58704;53.358;-6.238;2022-10-16T04:25:56;3.00;;;0.80;;
71048;SDS011;58704;53.358;-6.238;2022-10-16T04:28:21;2.63;;;1.13;;
71048;SDS011;58704;53.358;-6.238;2022-10-16T04:30:47;4.35;;;0.70;;
71048;SDS011;58704;53.358;-6.238;2022-10-16T04:33:12;3.97;;;0.70;;
71048;SDS011;58704;53.358;-6.238;2022-10-16T04:35:38;1.73;;;0.97;;
71048;SDS011;58704;53.358;-6.238;2022-10-16T04:38:03;2.40;;;1.07;;
71048;SDS011;58704;53.358;-6.238;2022-10-16T04:40:29;3.70;;;1.07;;
71048;SDS011;58704;53.358;-6.238;2022-10-16T04:42:58;3.35;;;0.90;;
71048;SDS011;58704;53.358;-6.238;2022-10-16T04:45:23;3.22;;;0.60;;
71048;SDS011;58704;53.358;-6.238;2022-10-16T04:47:49;1.73;;;1.00;;
71048;SDS011;58704;53.358;-6.238;2022-10-16T04:50:15;1.87;;;0.80;;
71048;SDS011;58704;53.358;-6.238;2022-10-16T04:52:40;1.95;;;0.80;;
71048;SDS011;58704;53.358;-6.238;2022-10-16T04:55:06;1.47;;;0.83;;
71048;SDS011;58704;53.358;-6.238;2022-10-16T04:57:32;3.40;;;1.00;;
71048;SDS011;58704;53.358;-6.238;2022-10-16T04:59:58;3.13;;;0.80;;
71048;SDS011;58704;53.358;-6.238;2022-10-16T05:02:24;5.53;;;1.07;;
71048;SDS011;58704;53.358;-6.238;2022-10-16T05:04:50;3.38;;;0.70;;
71048;SDS011;58704;53.358;-6.238;2022-10-16T05:07:16;4.22;;;0.90;;
71048;SDS011;58704;53.358;-6.238;2022-10-16T05:09:42;3.07;;;1.00;;
71048;SDS011;58704;53.358;-6.238;2022-10-16T05:12:07;5.73;;;0.90;;
71048;SDS011;58704;53.358;-6.238;2022-10-16T05:14:33;5.28;;;0.98;;
71048;SDS011;58704;53.358;-6.238;2022-10-16T05:16:59;2.43;;;0.93;;
71048;SDS011;58704;53.358;-6.238;2022-10-16T05:19:25;4.38;;;1.02;;
71048;SDS011;58704;53.358;-6.238;2022-10-16T05:21:50;5.13;;;1.20;;
71048;SDS011;58704;53.358;-6.238;2022-10-16T05:24:15;5.30;;;0.90;;
71048;SDS011;58704;53.358;-6.238;2022-10-16T05:26:41;3.08;;;0.75;;
71048;SDS011;58704;53.358;-6.238;2022-10-16T05:29:07;1.27;;;0.87;;
71048;SDS011;58704;53.358;-6.238;2022-10-16T05:31:32;6.33;;;0.90;;
71048;SDS011;58704;53.358;-6.238;2022-10-16T05:33:58;5.30;;;0.97;;
71048;SDS011;58704;53.358;-6.238;2022-10-16T05:36:24;3.50;;;0.93;;
71048;SDS011;58704;53.358;-6.238;2022-10-16T05:38:50;5.20;;;1.00;;
71048;SDS011;58704;53.358;-6.238;2022-10-16T05:41:16;5.93;;;1.07;;
71048;SDS011;58704;53.358;-6.238;2022-10-16T05:43:46;4.75;;;1.00;;
71048;SDS011;58704;53.358;-6.238;2022-10-16T05:46:12;2.97;;;0.80;;
71048;SDS011;58704;53.358;-6.238;2022-10-16T05:48:38;7.93;;;1.03;;
71048;SDS011;58704;53.358;-6.238;2022-10-16T05:51:04;4.63;;;0.90;;
71048;SDS011;58704;53.358;-6.238;2022-10-16T05:53:32;3.58;;;0.98;;
71048;SDS011;58704;53.358;-6.238;2022-10-16T05:55:59;1.95;;;0.93;;
71048;SDS011;58704;53.358;-6.238;2022-10-16T05:58:25;3.67;;;0.80;;
71048;SDS011;58704;53.358;-6.238;2022-10-16T06:01:12;5.13;;;1.20;;
71048;SDS011;58704;53.358;-6.238;2022-10-16T06:03:39;4.28;;;0.82;;
71048;SDS011;58704;53.358;-6.238;2022-10-16T06:06:11;6.57;;;0.83;;
71048;SDS011;58704;53.358;-6.238;2022-10-16T06:08:38;6.82;;;1.02;;
71048;SDS011;58704;53.358;-6.238;2022-10-16T06:11:05;4.30;;;1.08;;
71048;SDS011;58704;53.358;-6.238;2022-10-16T06:13:32;2.25;;;0.77;;
71048;SDS011;58704;53.358;-6.238;2022-10-16T06:15:58;7.57;;;0.70;;
71048;SDS011;58704;53.358;-6.238;2022-10-16T06:18:24;1.20;;;0.90;;
71048;SDS011;58704;53.358;-6.238;2022-10-16T06:20:50;6.13;;;0.80;;
71048;SDS011;58704;53.358;-6.238;2022-10-16T06:23:16;2.33;;;0.93;;
71048;SDS011;58704;53.358;-6.238;2022-10-16T06:25:41;8.50;;;0.97;;
71048;SDS011;58704;53.358;-6.238;2022-10-16T06:28:06;8.13;;;1.23;;
71048;SDS011;58704;53.358;-6.238;2022-10-16T06:30:32;5.07;;;1.03;;
71048;SDS011;58704;53.358;-6.238;2022-10-16T06:32:57;4.93;;;1.30;;
71048;SDS011;58704;53.358;-6.238;2022-10-16T06:35:22;6.63;;;1.10;;
71048;SDS011;58704;53.358;-6.238;2022-10-16T06:37:48;6.43;;;1.13;;
71048;SDS011;58704;53.358;-6.238;2022-10-16T06:40:14;4.83;;;0.77;;
71048;SDS011;58704;53.358;-6.238;2022-10-16T06:42:40;7.87;;;0.93;;
71048;SDS011;58704;53.358;-6.238;2022-10-16T06:45:06;4.72;;;0.80;;
71048;SDS011;58704;53.358;-6.238;2022-10-16T06:47:32;7.35;;;1.20;;
71048;SDS011;58704;53.358;-6.238;2022-10-16T06:49:57;4.27;;;0.70;;
71048;SDS011;58704;53.358;-6.238;2022-10-16T06:52:23;5.57;;;0.93;;
71048;SDS011;58704;53.358;-6.238;2022-10-16T06:54:49;5.07;;;1.30;;
71048;SDS011;58704;53.358;-6.238;2022-10-16T06:57:14;5.63;;;0.90;;
71048;SDS011;58704;53.358;-6.238;2022-10-16T06:59:40;4.05;;;1.00;;
71048;SDS011;58704;53.358;-6.238;2022-10-16T07:02:05;6.73;;;1.27;;
71048;SDS011;58704;53.358;-6.238;2022-10-16T07:04:32;4.13;;;1.20;;
71048;SDS011;58704;53.358;-6.238;2022-10-16T07:06:57;4.67;;;1.00;;
71048;SDS011;58704;53.358;-6.238;2022-10-16T07:09:25;4.05;;;0.95;;
71048;SDS011;58704;53.358;-6.238;2022-10-16T07:11:51;1.43;;;1.00;;
71048;SDS011;58704;53.358;-6.238;2022-10-16T07:14:17;4.60;;;1.40;;
71048;SDS011;58704;53.358;-6.238;2022-10-16T07:16:44;5.13;;;1.08;;
71048;SDS011;58704;53.358;-6.238;2022-10-16T07:19:09;5.93;;;1.00;;
71048;SDS011;58704;53.358;-6.238;2022-10-16T07:21:37;7.75;;;0.98;;
71048;SDS011;58704;53.358;-6.238;2022-10-16T07:24:03;8.48;;;1.38;;
71048;SDS011;58704;53.358;-6.238;2022-10-16T07:26:31;4.05;;;1.35;;
71048;SDS011;58704;53.358;-6.238;2022-10-16T07:28:59;9.68;;;1.30;;
71048;SDS011;58704;53.358;-6.238;2022-10-16T07:31:24;9.80;;;1.27;;
71048;SDS011;58704;53.358;-6.238;2022-10-16T07:33:50;7.20;;;1.40;;
71048;SDS011;58704;53.358;-6.238;2022-10-16T07:36:17;6.77;;;1.90;;
71048;SDS011;58704;53.358;-6.238;2022-10-16T07:38:43;2.58;;;1.00;;
71048;SDS011;58704;53.358;-6.238;2022-10-16T07:41:12;6.45;;;1.17;;
71048;SDS011;58704;53.358;-6.238;2022-10-16T07:43:39;4.33;;;1.07;;
71048;SDS011;58704;53.358;-6.238;2022-10-16T07:46:05;3.65;;;1.00;;
71048;SDS011;58704;53.358;-6.238;2022-10-16T07:48:32;2.25;;;1.00;;
71048;SDS011;58704;53.358;-6.238;2022-10-16T07:50:59;2.85;;;1.23;;
71048;SDS011;58704;53.358;-6.238;2022-10-16T07:53:29;10.30;;;2.37;;
71048;SDS011;58704;53.358;-6.238;2022-10-16T07:56:02;4.78;;;1.55;;
71048;SDS011;58704;53.358;-6.238;2022-10-16T07:58:31;5.88;;;1.15;;
71048;SDS011;58704;53.358;-6.238;2022-10-16T08:00:57;4.10;;;1.10;;
71048;SDS011;58704;53.358;-6.238;2022-10-16T08:03:25;5.60;;;1.30;;
71048;SDS011;58704;53.358;-6.238;2022-10-16T08:05:50;5.75;;;1.20;;
71048;SDS011;58704;53.358;-6.238;2022-10-16T08:08:20;2.88;;;1.33;;
71048;SDS011;58704;53.358;-6.238;2022-10-16T08:10:45;4.30;;;1.20;;
71048;SDS011;58704;53.358;-6.238;2022-10-16T08:13:11;4.10;;;1.20;;
71048;SDS011;58704;53.358;-6.238;2022-10-16T08:15:37;5.88;;;1.00;;
71048;SDS011;58704;53.358;-6.238;2022-10-16T08:18:04;4.93;;;1.20;;
71048;SDS011;58704;53.358;-6.238;2022-10-16T08:20:30;2.83;;;1.00;;
71048;SDS011;58704;53.358;-6.238;2022-10-16T08:22:56;3.85;;;1.45;;
71048;SDS011;58704;53.358;-6.238;2022-10-16T08:25:22;4.23;;;1.10;;
71048;SDS011;58704;53.358;-6.238;2022-10-16T08:27:49;2.70;;;1.17;;
71048;SDS011;58704;53.358;-6.238;2022-10-16T08:30:15;6.55;;;1.98;;
71048;SDS011;58704;53.358;-6.238;2022-10-16T08:32:41;10.27;;;3.90;;
71048;SDS011;58704;53.358;-6.238;2022-10-16T08:35:10;8.80;;;3.97;;
71048;SDS011;58704;53.358;-6.238;2022-10-16T08:37:37;7.85;;;3.45;;
71048;SDS011;58704;53.358;-6.238;2022-10-16T08:40:04;6.00;;;3.00;;
71048;SDS011;58704;53.358;-6.238;2022-10-16T08:42:41;8.10;;;2.80;;
71048;SDS011;58704;53.358;-6.238;2022-10-16T08:50:48;7.65;;;2.50;;
71048;SDS011;58704;53.358;-6.238;2022-10-16T08:53:17;7.20;;;2.08;;
71048;SDS011;58704;53.358;-6.238;2022-10-16T08:55:55;8.43;;;2.40;;
71048;SDS011;58704;53.358;-6.238;2022-10-16T08:58:21;10.00;;;5.17;;
71048;SDS011;58704;53.358;-6.238;2022-10-16T09:00:50;8.63;;;4.03;;
71048;SDS011;58704;53.358;-6.238;2022-10-16T09:06:05;11.35;;;1.90;;
71048;SDS011;58704;53.358;-6.238;2022-10-16T09:16:57;4.85;;;1.75;;
71048;SDS011;58704;53.358;-6.238;2022-10-16T09:19:28;7.85;;;2.03;;
71048;SDS011;58704;53.358;-6.238;2022-10-16T09:21:57;9.40;;;1.80;;
71048;SDS011;58704;53.358;-6.238;2022-10-16T09:24:25;5.30;;;1.73;;
71048;SDS011;58704;53.358;-6.238;2022-10-16T09:26:51;5.57;;;1.80;;
71048;SDS011;58704;53.358;-6.238;2022-10-16T09:29:18;6.00;;;1.60;;
71048;SDS011;58704;53.358;-6.238;2022-10-16T09:31:45;6.60;;;1.30;;
71048;SDS011;58704;53.358;-6.238;2022-10-16T09:36:56;5.25;;;1.33;;
71048;SDS011;58704;53.358;-6.238;2022-10-16T09:39:23;6.97;;;1.45;;
71048;SDS011;58704;53.358;-6.238;2022-10-16T09:41:48;11.57;;;1.90;;
71048;SDS011;58704;53.358;-6.238;2022-10-16T09:46:49;8.07;;;2.20;;
71048;SDS011;58704;53.358;-6.238;2022-10-16T09:49:26;7.93;;;2.70;;
71048;SDS011;58704;53.358;-6.238;2022-10-16T09:52:03;8.57;;;3.73;;
71048;SDS011;58704;53.358;-6.238;2022-10-16T09:54:30;12.40;;;5.53;;
71048;SDS011;58704;53.358;-6.238;2022-10-16T09:57:03;13.73;;;4.20;;
71048;SDS011;58704;53.358;-6.238;2022-10-16T09:59:31;10.50;;;2.97;;
71048;SDS011;58704;53.358;-6.238;2022-10-16T10:02:00;10.43;;;3.30;;
71048;SDS011;58704;53.358;-6.238;2022-10-16T10:04:36;7.97;;;2.50;;
71048;SDS011;58704;53.358;-6.238;2022-10-16T10:07:06;5.38;;;1.90;;
71048;SDS011;58704;53.358;-6.238;2022-10-16T10:09:43;10.23;;;1.90;;
71048;SDS011;58704;53.358;-6.238;2022-10-16T10:12:23;10.63;;;2.10;;
71048;SDS011;58704;53.358;-6.238;2022-10-16T10:14:54;4.43;;;1.75;;
71048;SDS011;58704;53.358;-6.238;2022-10-16T10:17:21;5.65;;;1.70;;
71048;SDS011;58704;53.358;-6.238;2022-10-16T10:22:43;5.73;;;1.30;;
71048;SDS011;58704;53.358;-6.238;2022-10-16T10:27:39;8.73;;;1.83;;
71048;SDS011;58704;53.358;-6.238;2022-10-16T10:36:01;5.18;;;1.38;;
71048;SDS011;58704;53.358;-6.238;2022-10-16T10:41:34;7.23;;;1.60;;
71048;SDS011;58704;53.358;-6.238;2022-10-16T10:47:04;6.32;;;1.70;;
71048;SDS011;58704;53.358;-6.238;2022-10-16T10:54:37;8.55;;;1.73;;
71048;SDS011;58704;53.358;-6.238;2022-10-16T10:57:29;9.93;;;1.92;;
71048;SDS011;58704;53.358;-6.238;2022-10-16T11:05:53;4.32;;;1.73;;
71048;SDS011;58704;53.358;-6.238;2022-10-16T11:08:53;5.35;;;1.20;;
71048;SDS011;58704;53.358;-6.238;2022-10-16T11:14:19;12.23;;;4.77;;
71048;SDS011;58704;53.358;-6.238;2022-10-16T11:27:50;5.57;;;1.70;;
71048;SDS011;58704;53.358;-6.238;2022-10-16T11:30:46;5.63;;;1.38;;
71048;SDS011;58704;53.358;-6.238;2022-10-16T11:38:15;9.48;;;2.28;;
71048;SDS011;58704;53.358;-6.238;2022-10-16T11:41:04;9.95;;;3.15;;
71048;SDS011;58704;53.358;-6.238;2022-10-16T11:43:41;7.22;;;1.75;;
71048;SDS011;58704;53.358;-6.238;2022-10-16T11:46:13;11.60;;;2.00;;
71048;SDS011;58704;53.358;-6.238;2022-10-16T11:48:46;8.27;;;2.60;;
71048;SDS011;58704;53.358;-6.238;2022-10-16T11:51:36;9.23;;;2.72;;
71048;SDS011;58704;53.358;-6.238;2022-10-16T11:56:48;7.60;;;2.80;;
71048;SDS011;58704;53.358;-6.238;2022-10-16T11:59:19;8.13;;;1.80;;
71048;SDS011;58704;53.358;-6.238;2022-10-16T12:02:15;6.07;;;1.90;;
71048;SDS011;58704;53.358;-6.238;2022-10-16T12:05:02;4.70;;;1.50;;
71048;SDS011;58704;53.358;-6.238;2022-10-16T12:07:37;5.57;;;1.70;;
71048;SDS011;58704;53.358;-6.238;2022-10-16T12:10:25;5.60;;;1.70;;
71048;SDS011;58704;53.358;-6.238;2022-10-16T12:12:52;8.93;;;1.73;;
71048;SDS011;58704;53.358;-6.238;2022-10-16T12:15:29;6.38;;;1.63;;
71048;SDS011;58704;53.358;-6.238;2022-10-16T12:17:57;3.22;;;1.50;;
71048;SDS011;58704;53.358;-6.238;2022-10-16T12:20:24;4.83;;;1.73;;
71048;SDS011;58704;53.358;-6.238;2022-10-16T12:23:00;7.07;;;1.60;;
71048;SDS011;58704;53.358;-6.238;2022-10-16T12:25:37;5.75;;;1.40;;
71048;SDS011;58704;53.358;-6.238;2022-10-16T12:28:19;7.88;;;1.88;;
71048;SDS011;58704;53.358;-6.238;2022-10-16T12:30:52;3.30;;;1.40;;
71048;SDS011;58704;53.358;-6.238;2022-10-16T12:33:25;16.77;;;1.42;;
71048;SDS011;58704;53.358;-6.238;2022-10-16T12:35:52;8.52;;;1.73;;
71048;SDS011;58704;53.358;-6.238;2022-10-16T12:38:25;4.32;;;1.60;;
71048;SDS011;58704;53.358;-6.238;2022-10-16T12:45:58;5.40;;;1.35;;
71048;SDS011;58704;53.358;-6.238;2022-10-16T12:48:24;9.65;;;1.65;;
71048;SDS011;58704;53.358;-6.238;2022-10-16T12:50:50;10.97;;;2.37;;
71048;SDS011;58704;53.358;-6.238;2022-10-16T13:01:35;6.95;;;1.50;;
71048;SDS011;58704;53.358;-6.238;2022-10-16T13:04:05;4.07;;;1.52;;
71048;SDS011;58704;53.358;-6.238;2022-10-16T13:09:36;8.82;;;1.30;;
71048;SDS011;58704;53.358;-6.238;2022-10-16T13:14:55;6.95;;;1.27;;
71048;SDS011;58704;53.358;-6.238;2022-10-16T13:20:31;3.67;;;1.23;;
71048;SDS011;58704;53.358;-6.238;2022-10-16T13:23:09;5.28;;;1.23;;
71048;SDS011;58704;53.358;-6.238;2022-10-16T13:26:01;7.13;;;1.58;;
71048;SDS011;58704;53.358;-6.238;2022-10-16T13:28:35;10.45;;;2.58;;
71048;SDS011;58704;53.358;-6.238;2022-10-16T13:31:01;10.38;;;1.92;;
71048;SDS011;58704;53.358;-6.238;2022-10-16T13:33:46;8.47;;;2.10;;
71048;SDS011;58704;53.358;-6.238;2022-10-16T13:36:19;8.93;;;2.00;;
71048;SDS011;58704;53.358;-6.238;2022-10-16T13:38:45;6.22;;;1.98;;
71048;SDS011;58704;53.358;-6.238;2022-10-16T13:41:17;6.00;;;2.20;;
71048;SDS011;58704;53.358;-6.238;2022-10-16T13:43:44;7.70;;;2.25;;
71048;SDS011;58704;53.358;-6.238;2022-10-16T13:46:12;6.53;;;2.05;;
71048;SDS011;58704;53.358;-6.238;2022-10-16T13:48:39;5.93;;;2.03;;
71048;SDS011;58704;53.358;-6.238;2022-10-16T13:51:12;6.70;;;1.90;;
71048;SDS011;58704;53.358;-6.238;2022-10-16T13:53:43;9.00;;;1.90;;
71048;SDS011;58704;53.358;-6.238;2022-10-16T13:56:13;4.10;;;1.70;;
71048;SDS011;58704;53.358;-6.238;2022-10-16T13:58:39;5.90;;;2.80;;
71048;SDS011;58704;53.358;-6.238;2022-10-16T14:01:13;5.13;;;1.90;;
71048;SDS011;58704;53.358;-6.238;2022-10-16T14:03:41;5.63;;;1.40;;
71048;SDS011;58704;53.358;-6.238;2022-10-16T14:06:11;4.85;;;1.33;;
71048;SDS011;58704;53.358;-6.238;2022-10-16T14:08:48;6.28;;;1.75;;
71048;SDS011;58704;53.358;-6.238;2022-10-16T14:11:25;6.00;;;2.00;;
71048;SDS011;58704;53.358;-6.238;2022-10-16T14:13:50;6.27;;;1.63;;
71048;SDS011;58704;53.358;-6.238;2022-10-16T14:16:17;4.93;;;1.92;;
71048;SDS011;58704;53.358;-6.238;2022-10-16T14:18:45;5.00;;;2.10;;
71048;SDS011;58704;53.358;-6.238;2022-10-16T14:21:14;5.93;;;1.90;;
71048;SDS011;58704;53.358;-6.238;2022-10-16T14:23:41;6.60;;;2.20;;
71048;SDS011;58704;53.358;-6.238;2022-10-16T14:28:35;11.15;;;1.77;;
71048;SDS011;58704;53.358;-6.238;2022-10-16T14:31:02;3.38;;;1.27;;
71048;SDS011;58704;53.358;-6.238;2022-10-16T14:33:41;5.93;;;1.40;;
71048;SDS011;58704;53.358;-6.238;2022-10-16T14:38:36;6.27;;;1.50;;
71048;SDS011;58704;53.358;-6.238;2022-10-16T14:41:03;5.43;;;1.80;;
71048;SDS011;58704;53.358;-6.238;2022-10-16T14:43:37;5.00;;;1.77;;
71048;SDS011;58704;53.358;-6.238;2022-10-16T14:46:18;8.15;;;1.95;;
71048;SDS011;58704;53.358;-6.238;2022-10-16T14:48:49;11.38;;;2.03;;
71048;SDS011;58704;53.358;-6.238;2022-10-16T14:51:16;9.50;;;1.23;;
71048;SDS011;58704;53.358;-6.238;2022-10-16T14:53:43;5.05;;;1.42;;
71048;SDS011;58704;53.358;-6.238;2022-10-16T14:56:09;12.07;;;1.77;;
71048;SDS011;58704;53.358;-6.238;2022-10-16T14:58:41;11.88;;;1.90;;
71048;SDS011;58704;53.358;-6.238;2022-10-16T15:01:07;7.80;;;1.60;;
71048;SDS011;58704;53.358;-6.238;2022-10-16T15:03:35;9.87;;;1.63;;
71048;SDS011;58704;53.358;-6.238;2022-10-16T15:06:01;11.18;;;2.20;;
71048;SDS011;58704;53.358;-6.238;2022-10-16T15:08:26;7.57;;;2.47;;
71048;SDS011;58704;53.358;-6.238;2022-10-16T15:10:52;21.47;;;5.50;;
71048;SDS011;58704;53.358;-6.238;2022-10-16T15:13:18;14.13;;;4.82;;
71048;SDS011;58704;53.358;-6.238;2022-10-16T15:15:45;16.43;;;4.53;;
71048;SDS011;58704;53.358;-6.238;2022-10-16T15:18:11;10.75;;;5.18;;
71048;SDS011;58704;53.358;-6.238;2022-10-16T15:20:39;18.95;;;6.57;;
71048;SDS011;58704;53.358;-6.238;2022-10-16T15:23:15;16.30;;;4.17;;
71048;SDS011;58704;53.358;-6.238;2022-10-16T15:25:43;16.15;;;5.72;;
71048;SDS011;58704;53.358;-6.238;2022-10-16T15:28:16;9.48;;;2.60;;
71048;SDS011;58704;53.358;-6.238;2022-10-16T15:30:42;26.00;;;10.50;;
71048;SDS011;58704;53.358;-6.238;2022-10-16T15:33:11;9.07;;;3.15;;
71048;SDS011;58704;53.358;-6.238;2022-10-16T15:35:39;16.60;;;4.10;;
71048;SDS011;58704;53.358;-6.238;2022-10-16T15:38:05;11.52;;;3.25;;
71048;SDS011;58704;53.358;-6.238;2022-10-16T15:40:30;18.13;;;4.50;;
71048;SDS011;58704;53.358;-6.238;2022-10-16T15:42:56;18.53;;;5.17;;
71048;SDS011;58704;53.358;-6.238;2022-10-16T15:45:21;28.80;;;9.80;;
71048;SDS011;58704;53.358;-6.238;2022-10-16T15:47:46;11.80;;;3.72;;
71048;SDS011;58704;53.358;-6.238;2022-10-16T15:50:13;20.87;;;4.43;;
71048;SDS011;58704;53.358;-6.238;2022-10-16T15:52:39;30.98;;;11.55;;
71048;SDS011;58704;53.358;-6.238;2022-10-16T15:55:06;11.40;;;2.67;;
71048;SDS011;58704;53.358;-6.238;2022-10-16T15:57:33;8.27;;;2.30;;
71048;SDS011;58704;53.358;-6.238;2022-10-16T15:59:58;10.00;;;1.60;;
71048;SDS011;58704;53.358;-6.238;2022-10-16T16:02:24;3.80;;;1.50;;
71048;SDS011;58704;53.358;-6.238;2022-10-16T16:04:49;10.03;;;1.83;;
71048;SDS011;58704;53.358;-6.238;2022-10-16T16:07:15;11.75;;;2.33;;
71048;SDS011;58704;53.358;-6.238;2022-10-16T16:09:41;12.73;;;2.77;;
71048;SDS011;58704;53.358;-6.238;2022-10-16T16:12:06;8.80;;;2.08;;
71048;SDS011;58704;53.358;-6.238;2022-10-16T16:14:32;13.67;;;2.17;;
71048;SDS011;58704;53.358;-6.238;2022-10-16T16:16:58;15.55;;;3.15;;
71048;SDS011;58704;53.358;-6.238;2022-10-16T16:19:24;11.60;;;2.10;;
71048;SDS011;58704;53.358;-6.238;2022-10-16T16:21:49;9.60;;;2.00;;
71048;SDS011;58704;53.358;-6.238;2022-10-16T16:24:15;12.73;;;2.78;;
71048;SDS011;58704;53.358;-6.238;2022-10-16T16:26:41;18.57;;;2.33;;
71048;SDS011;58704;53.358;-6.238;2022-10-16T16:29:12;9.87;;;2.27;;
71048;SDS011;58704;53.358;-6.238;2022-10-16T16:31:38;16.45;;;2.60;;
71048;SDS011;58704;53.358;-6.238;2022-10-16T16:34:04;16.20;;;4.30;;
71048;SDS011;58704;53.358;-6.238;2022-10-16T16:36:30;14.95;;;2.55;;
71048;SDS011;58704;53.358;-6.238;2022-10-16T16:38:56;10.83;;;2.40;;
71048;SDS011;58704;53.358;-6.238;2022-10-16T16:41:23;10.70;;;1.85;;
71048;SDS011;58704;53.358;-6.238;2022-10-16T16:43:50;14.17;;;2.20;;
71048;SDS011;58704;53.358;-6.238;2022-10-16T16:46:16;20.27;;;2.45;;